sensor_id;sensor_type;location;lat;lon;timestamp;pressure;altitude;pressure_sealevel;temperature;humidity
49827;BME280;35715;51.570;6.036;2023-03-04T00:02:11;102482.00;;;7.32;65.53
49827;BME280;35715;51.570;6.036;2023-03-04T00:04:36;102484.00;;;7.35;65.49
49827;BME280;35715;51.570;6.036;2023-03-04T00:07:03;102490.38;;;7.38;65.52
49827;BME280;35715;51.570;6.036;2023-03-04T00:09:28;102481.03;;;7.39;65.45
49827;BME280;35715;51.570;6.036;2023-03-04T00:11:53;102493.09;;;7.40;65.33
49827;BME280;35715;51.570;6.036;2023-03-04T00:14:18;102490.19;;;7.37;65.33
49827;BME280;35715;51.570;6.036;2023-03-04T00:16:47;102476.47;;;7.36;65.35
49827;BME280;35715;51.570;6.036;2023-03-04T00:19:13;102480.50;;;7.34;65.39
49827;BME280;35715;51.570;6.036;2023-03-04T00:21:38;102475.22;;;7.33;65.54
49827;BME280;35715;51.570;6.036;2023-03-04T00:24:04;102473.56;;;7.33;65.86
49827;BME280;35715;51.570;6.036;2023-03-04T00:26:31;102479.94;;;7.37;65.59
49827;BME280;35715;51.570;6.036;2023-03-04T00:28:57;102476.63;;;7.38;65.54
49827;BME280;35715;51.570;6.036;2023-03-04T00:31:22;102475.38;;;7.34;65.46
49827;BME280;35715;51.570;6.036;2023-03-04T00:33:48;102474.47;;;7.34;65.65
49827;BME280;35715;51.570;6.036;2023-03-04T00:36:14;102476.47;;;7.36;65.59
49827;BME280;35715;51.570;6.036;2023-03-04T00:38:39;102481.75;;;7.38;65.69
49827;BME280;35715;51.570;6.036;2023-03-04T00:41:04;102476.56;;;7.29;65.79
49827;BME280;35715;51.570;6.036;2023-03-04T00:43:30;102471.81;;;7.25;66.03
49827;BME280;35715;51.570;6.036;2023-03-04T00:45:57;102476.13;;;7.17;65.63
49827;BME280;35715;51.570;6.036;2023-03-04T00:48:22;102470.75;;;7.23;65.60
49827;BME280;35715;51.570;6.036;2023-03-04T00:50:47;102469.94;;;7.15;65.58
49827;BME280;35715;51.570;6.036;2023-03-04T00:53:13;102471.16;;;7.19;65.75
49827;BME280;35715;51.570;6.036;2023-03-04T00:55:40;102471.00;;;7.17;65.73
49827;BME280;35715;51.570;6.036;2023-03-04T00:58:05;102473.41;;;7.16;65.94
49827;BME280;35715;51.570;6.036;2023-03-04T01:00:31;102472.50;;;7.15;66.08
49827;BME280;35715;51.570;6.036;2023-03-04T01:02:56;102467.88;;;7.20;66.08
49827;BME280;35715;51.570;6.036;2023-03-04T01:05:21;102471.50;;;7.22;65.75
49827;BME280;35715;51.570;6.036;2023-03-04T01:07:46;102476.78;;;7.23;66.14
49827;BME280;35715;51.570;6.036;2023-03-04T01:10:12;102479.53;;;7.25;66.36
49827;BME280;35715;51.570;6.036;2023-03-04T01:12:38;102466.63;;;7.16;66.33
49827;BME280;35715;51.570;6.036;2023-03-04T01:15:05;102470.44;;;7.20;66.25
49827;BME280;35715;51.570;6.036;2023-03-04T01:17:35;102476.47;;;7.20;66.12
49827;BME280;35715;51.570;6.036;2023-03-04T01:20:01;102471.50;;;7.22;65.95
49827;BME280;35715;51.570;6.036;2023-03-04T01:22:26;102467.53;;;7.17;66.14
49827;BME280;35715;51.570;6.036;2023-03-04T01:24:51;102475.06;;;7.15;65.90
49827;BME280;35715;51.570;6.036;2023-03-04T01:27:18;102473.25;;;7.14;66.04
49827;BME280;35715;51.570;6.036;2023-03-04T01:29:43;102467.53;;;7.17;65.87
49827;BME280;35715;51.570;6.036;2023-03-04T01:32:09;102469.78;;;7.14;65.90
49827;BME280;35715;51.570;6.036;2023-03-04T01:34:34;102468.88;;;7.13;65.73
49827;BME280;35715;51.570;6.036;2023-03-04T01:37:01;102475.31;;;7.09;65.79
49827;BME280;35715;51.570;6.036;2023-03-04T01:39:26;102462.31;;;7.08;65.98
49827;BME280;35715;51.570;6.036;2023-03-04T01:41:51;102459.66;;;6.99;65.99
49827;BME280;35715;51.570;6.036;2023-03-04T01:44:16;102460.09;;;6.95;66.33
49827;BME280;35715;51.570;6.036;2023-03-04T01:49:21;102459.16;;;6.95;66.05
49827;BME280;35715;51.570;6.036;2023-03-04T01:51:50;102449.41;;;6.99;66.41
49827;BME280;35715;51.570;6.036;2023-03-04T01:54:16;102452.91;;;7.00;66.60
49827;BME280;35715;51.570;6.036;2023-03-04T01:56:43;102453.22;;;7.03;66.34
49827;BME280;35715;51.570;6.036;2023-03-04T02:01:37;102447.00;;;7.01;66.16
49827;BME280;35715;51.570;6.036;2023-03-04T02:04:03;102445.59;;;6.96;66.70
49827;BME280;35715;51.570;6.036;2023-03-04T02:06:29;102443.28;;;6.90;66.63
49827;BME280;35715;51.570;6.036;2023-03-04T02:08:55;102437.56;;;6.92;66.54
49827;BME280;35715;51.570;6.036;2023-03-04T02:11:20;102438.47;;;6.93;66.72
49827;BME280;35715;51.570;6.036;2023-03-04T02:13:45;102430.63;;;6.91;66.69
49827;BME280;35715;51.570;6.036;2023-03-04T02:16:10;102438.47;;;6.93;66.48
49827;BME280;35715;51.570;6.036;2023-03-04T02:18:36;102430.13;;;6.87;66.69
49827;BME280;35715;51.570;6.036;2023-03-04T02:23:32;102427.56;;;6.87;66.95
49827;BME280;35715;51.570;6.036;2023-03-04T02:28:45;102425.75;;;6.86;66.50
49827;BME280;35715;51.570;6.036;2023-03-04T02:31:22;102419.53;;;6.84;66.60
49827;BME280;35715;51.570;6.036;2023-03-04T02:33:48;102420.63;;;6.86;66.53
49827;BME280;35715;51.570;6.036;2023-03-04T02:36:24;102419.69;;;6.85;66.50
49827;BME280;35715;51.570;6.036;2023-03-04T02:38:50;102420.63;;;6.86;66.57
49827;BME280;35715;51.570;6.036;2023-03-04T02:41:17;102418.63;;;6.83;66.95
49827;BME280;35715;51.570;6.036;2023-03-04T02:43:44;102416.97;;;6.84;66.86
49827;BME280;35715;51.570;6.036;2023-03-04T02:46:11;102411.34;;;6.79;67.07
49827;BME280;35715;51.570;6.036;2023-03-04T02:48:36;102415.22;;;6.75;67.15
49827;BME280;35715;51.570;6.036;2023-03-04T02:51:02;102407.88;;;6.79;66.78
49827;BME280;35715;51.570;6.036;2023-03-04T02:53:27;102411.34;;;6.79;67.01
49827;BME280;35715;51.570;6.036;2023-03-04T02:55:52;102403.97;;;6.82;67.15
49827;BME280;35715;51.570;6.036;2023-03-04T02:58:18;102399.41;;;6.80;67.37
49827;BME280;35715;51.570;6.036;2023-03-04T03:00:43;102404.53;;;6.80;67.41
49827;BME280;35715;51.570;6.036;2023-03-04T03:03:08;102401.25;;;6.81;67.58
49827;BME280;35715;51.570;6.036;2023-03-04T03:05:34;102400.19;;;6.79;67.46
49827;BME280;35715;51.570;6.036;2023-03-04T03:07:59;102398.09;;;6.83;67.35
49827;BME280;35715;51.570;6.036;2023-03-04T03:10:25;102408.13;;;6.89;67.47
49827;BME280;35715;51.570;6.036;2023-03-04T03:12:50;102390.91;;;6.88;67.52
49827;BME280;35715;51.570;6.036;2023-03-04T03:15:16;102391.78;;;6.88;67.23
49827;BME280;35715;51.570;6.036;2023-03-04T03:17:43;102392.56;;;6.87;67.48
49827;BME280;35715;51.570;6.036;2023-03-04T03:20:09;102394.34;;;6.88;67.60
49827;BME280;35715;51.570;6.036;2023-03-04T03:22:35;102385.75;;;6.88;67.67
49827;BME280;35715;51.570;6.036;2023-03-04T03:25:00;102392.56;;;6.87;67.84
49827;BME280;35715;51.570;6.036;2023-03-04T03:29:56;102388.50;;;6.89;67.70
49827;BME280;35715;51.570;6.036;2023-03-04T03:32:21;102389.56;;;6.91;67.92
49827;BME280;35715;51.570;6.036;2023-03-04T03:34:46;102381.84;;;6.91;67.88
49827;BME280;35715;51.570;6.036;2023-03-04T03:37:14;102387.94;;;6.92;67.76
49827;BME280;35715;51.570;6.036;2023-03-04T03:39:39;102385.94;;;6.89;68.18
49827;BME280;35715;51.570;6.036;2023-03-04T03:42:04;102383.59;;;6.84;68.37
49827;BME280;35715;51.570;6.036;2023-03-04T03:44:30;102382.72;;;6.83;68.18
49827;BME280;35715;51.570;6.036;2023-03-04T03:46:59;102386.91;;;6.83;68.24
49827;BME280;35715;51.570;6.036;2023-03-04T03:49:24;102386.66;;;6.88;68.11
49827;BME280;35715;51.570;6.036;2023-03-04T03:51:50;102385.03;;;6.89;68.06
49827;BME280;35715;51.570;6.036;2023-03-04T03:54:15;102387.59;;;6.89;68.13
49827;BME280;35715;51.570;6.036;2023-03-04T03:56:40;102379.03;;;6.81;68.73
49827;BME280;35715;51.570;6.036;2023-03-04T03:59:05;102381.03;;;6.84;68.43
49827;BME280;35715;51.570;6.036;2023-03-04T04:01:31;102381.44;;;6.80;68.72
49827;BME280;35715;51.570;6.036;2023-03-04T04:03:57;102384.63;;;6.77;68.65
49827;BME280;35715;51.570;6.036;2023-03-04T04:06:22;102375.25;;;6.78;68.76
49827;BME280;35715;51.570;6.036;2023-03-04T04:08:48;102377.25;;;6.80;68.71
49827;BME280;35715;51.570;6.036;2023-03-04T04:11:13;102378.47;;;6.84;68.89
49827;BME280;35715;51.570;6.036;2023-03-04T04:13:38;102383.03;;;6.86;68.77
49827;BME280;35715;51.570;6.036;2023-03-04T04:16:04;102380.47;;;6.86;68.99
49827;BME280;35715;51.570;6.036;2023-03-04T04:18:29;102374.84;;;6.82;68.97
49827;BME280;35715;51.570;6.036;2023-03-04T04:20:54;102378.16;;;6.81;68.94
49827;BME280;35715;51.570;6.036;2023-03-04T04:23:20;102381.22;;;6.85;68.60
49827;BME280;35715;51.570;6.036;2023-03-04T04:25:46;102382.13;;;6.86;68.93
49827;BME280;35715;51.570;6.036;2023-03-04T04:28:12;102381.78;;;6.83;68.74
49827;BME280;35715;51.570;6.036;2023-03-04T04:30:37;102381.44;;;6.80;68.89
49827;BME280;35715;51.570;6.036;2023-03-04T04:33:02;102379.50;;;6.77;68.79
49827;BME280;35715;51.570;6.036;2023-03-04T04:35:29;102376.91;;;6.77;68.73
49827;BME280;35715;51.570;6.036;2023-03-04T04:37:54;102376.00;;;6.77;68.53
49827;BME280;35715;51.570;6.036;2023-03-04T04:40:19;102381.63;;;6.81;68.61
49827;BME280;35715;51.570;6.036;2023-03-04T04:42:45;102375.91;;;6.84;68.43
49827;BME280;35715;51.570;6.036;2023-03-04T04:45:10;102383.03;;;6.86;68.63
49827;BME280;35715;51.570;6.036;2023-03-04T04:47:37;102383.78;;;6.85;68.40
49827;BME280;35715;51.570;6.036;2023-03-04T04:50:03;102376.66;;;6.83;68.48
49827;BME280;35715;51.570;6.036;2023-03-04T04:52:28;102380.16;;;6.83;68.67
49827;BME280;35715;51.570;6.036;2023-03-04T04:54:53;102387.84;;;6.83;68.55
49827;BME280;35715;51.570;6.036;2023-03-04T04:57:29;102381.63;;;6.81;68.47
49827;BME280;35715;51.570;6.036;2023-03-04T04:59:54;102381.94;;;6.84;68.63
49827;BME280;35715;51.570;6.036;2023-03-04T05:02:19;102385.44;;;6.85;68.61
49827;BME280;35715;51.570;6.036;2023-03-04T05:04:44;102388.75;;;6.84;68.47
49827;BME280;35715;51.570;6.036;2023-03-04T05:07:10;102378.31;;;6.82;68.57
49827;BME280;35715;51.570;6.036;2023-03-04T05:09:35;102387.50;;;6.80;68.49
49827;BME280;35715;51.570;6.036;2023-03-04T05:12:00;102386.75;;;6.81;68.54
49827;BME280;35715;51.570;6.036;2023-03-04T05:14:25;102386.91;;;6.83;68.53
49827;BME280;35715;51.570;6.036;2023-03-04T05:16:52;102386.34;;;6.85;68.66
49827;BME280;35715;51.570;6.036;2023-03-04T05:19:17;102385.44;;;6.85;68.73
49827;BME280;35715;51.570;6.036;2023-03-04T05:21:43;102390.72;;;6.86;68.69
49827;BME280;35715;51.570;6.036;2023-03-04T05:24:08;102388.16;;;6.86;68.46
49827;BME280;35715;51.570;6.036;2023-03-04T05:26:34;102387.28;;;6.86;68.67
49827;BME280;35715;51.570;6.036;2023-03-04T05:28:59;102395.13;;;6.87;68.50
49827;BME280;35715;51.570;6.036;2023-03-04T05:31:25;102383.03;;;6.86;68.80
49827;BME280;35715;51.570;6.036;2023-03-04T05:33:50;102385.84;;;6.81;68.93
49827;BME280;35715;51.570;6.036;2023-03-04T05:36:19;102385.91;;;6.73;69.13
49827;BME280;35715;51.570;6.036;2023-03-04T05:38:44;102380.72;;;6.65;68.96
49827;BME280;35715;51.570;6.036;2023-03-04T05:41:10;102391.31;;;6.68;68.87
49827;BME280;35715;51.570;6.036;2023-03-04T05:43:35;102381.22;;;6.69;69.15
49827;BME280;35715;51.570;6.036;2023-03-04T05:46:02;102386.03;;;6.66;69.16
49827;BME280;35715;51.570;6.036;2023-03-04T05:48:28;102384.94;;;6.64;69.51
49827;BME280;35715;51.570;6.036;2023-03-04T05:50:54;102388.59;;;6.66;69.42
49827;BME280;35715;51.570;6.036;2023-03-04T05:53:20;102391.56;;;6.62;69.66
49827;BME280;35715;51.570;6.036;2023-03-04T05:58:14;102393.78;;;6.59;70.02
49827;BME280;35715;51.570;6.036;2023-03-04T06:00:39;102396.84;;;6.64;69.84
49827;BME280;35715;51.570;6.036;2023-03-04T06:03:04;102390.66;;;6.62;70.06
49827;BME280;35715;51.570;6.036;2023-03-04T06:05:30;102397.59;;;6.63;70.01
49827;BME280;35715;51.570;6.036;2023-03-04T06:07:56;102391.91;;;6.65;69.85
49827;BME280;35715;51.570;6.036;2023-03-04T06:10:21;102395.84;;;6.70;69.99
49827;BME280;35715;51.570;6.036;2023-03-04T06:12:46;102392.88;;;6.74;69.88
49827;BME280;35715;51.570;6.036;2023-03-04T06:15:12;102394.88;;;6.77;69.49
49827;BME280;35715;51.570;6.036;2023-03-04T06:17:38;102400.19;;;6.79;69.67
49827;BME280;35715;51.570;6.036;2023-03-04T06:20:04;102395.22;;;6.80;69.82
49827;BME280;35715;51.570;6.036;2023-03-04T06:22:33;102400.19;;;6.79;69.96
49827;BME280;35715;51.570;6.036;2023-03-04T06:24:58;102397.78;;;6.80;69.90
49827;BME280;35715;51.570;6.036;2023-03-04T06:27:25;102407.09;;;6.80;70.20
49827;BME280;35715;51.570;6.036;2023-03-04T06:29:50;102410.44;;;6.79;70.10
49827;BME280;35715;51.570;6.036;2023-03-04T06:32:15;102408.94;;;6.81;70.21
49827;BME280;35715;51.570;6.036;2023-03-04T06:34:40;102408.44;;;6.76;70.45
49827;BME280;35715;51.570;6.036;2023-03-04T06:37:07;102406.94;;;6.78;70.37
49827;BME280;35715;51.570;6.036;2023-03-04T06:39:33;102408.59;;;6.78;70.66
49827;BME280;35715;51.570;6.036;2023-03-04T06:41:58;102409.50;;;6.78;70.75
49827;BME280;35715;51.570;6.036;2023-03-04T06:44:23;102415.22;;;6.75;70.79
49827;BME280;35715;51.570;6.036;2023-03-04T06:46:50;102409.16;;;6.75;70.78
49827;BME280;35715;51.570;6.036;2023-03-04T06:49:15;102422.16;;;6.77;71.03
49827;BME280;35715;51.570;6.036;2023-03-04T06:51:40;102420.38;;;6.75;71.41
49827;BME280;35715;51.570;6.036;2023-03-04T06:54:05;102416.13;;;6.76;71.27
49827;BME280;35715;51.570;6.036;2023-03-04T06:56:32;102419.03;;;6.79;71.59
49827;BME280;35715;51.570;6.036;2023-03-04T06:58:57;102420.09;;;6.81;71.56
49827;BME280;35715;51.570;6.036;2023-03-04T07:01:24;102427.22;;;6.84;71.74
49827;BME280;35715;51.570;6.036;2023-03-04T07:03:50;102424.66;;;6.84;71.88
49827;BME280;35715;51.570;6.036;2023-03-04T07:06:16;102431.28;;;6.82;72.04
49827;BME280;35715;51.570;6.036;2023-03-04T07:08:42;102435.25;;;6.71;73.07
49827;BME280;35715;51.570;6.036;2023-03-04T07:11:07;102432.69;;;6.71;73.18
49827;BME280;35715;51.570;6.036;2023-03-04T07:13:33;102432.25;;;6.75;73.44
49827;BME280;35715;51.570;6.036;2023-03-04T07:16:03;102431.13;;;6.80;73.34
49827;BME280;35715;51.570;6.036;2023-03-04T07:18:28;102427.78;;;6.81;73.65
49827;BME280;35715;51.570;6.036;2023-03-04T07:20:53;102425.22;;;6.81;73.87
49827;BME280;35715;51.570;6.036;2023-03-04T07:23:19;102428.88;;;6.83;73.70
49827;BME280;35715;51.570;6.036;2023-03-04T07:25:48;102426.66;;;6.86;74.11
49827;BME280;35715;51.570;6.036;2023-03-04T07:28:16;102425.91;;;6.87;73.94
49827;BME280;35715;51.570;6.036;2023-03-04T07:30:41;102436.50;;;6.90;74.45
49827;BME280;35715;51.570;6.036;2023-03-04T07:33:07;102434.44;;;6.95;74.47
49827;BME280;35715;51.570;6.036;2023-03-04T07:35:32;102438.06;;;6.97;74.57
49827;BME280;35715;51.570;6.036;2023-03-04T07:37:57;102431.59;;;7.01;74.50
49827;BME280;35715;51.570;6.036;2023-03-04T07:40:22;102439.63;;;7.04;74.58
49827;BME280;35715;51.570;6.036;2023-03-04T07:42:51;102441.13;;;7.02;74.29
49827;BME280;35715;51.570;6.036;2023-03-04T07:45:17;102443.28;;;7.06;74.17
49827;BME280;35715;51.570;6.036;2023-03-04T07:47:44;102441.78;;;7.08;74.47
49827;BME280;35715;51.570;6.036;2023-03-04T07:50:10;102443.13;;;7.04;74.50
49827;BME280;35715;51.570;6.036;2023-03-04T07:52:39;102449.66;;;7.09;74.41
49827;BME280;35715;51.570;6.036;2023-03-04T07:55:04;102449.47;;;7.08;74.40
49827;BME280;35715;51.570;6.036;2023-03-04T07:57:31;102451.66;;;7.12;74.20
49827;BME280;35715;51.570;6.036;2023-03-04T07:59:56;102457.28;;;7.17;74.34
49827;BME280;35715;51.570;6.036;2023-03-04T08:02:21;102450.94;;;7.38;74.30
49827;BME280;35715;51.570;6.036;2023-03-04T08:04:46;102448.50;;;7.55;73.37
49827;BME280;35715;51.570;6.036;2023-03-04T08:07:16;102458.00;;;7.72;72.99
49827;BME280;35715;51.570;6.036;2023-03-04T08:09:41;102457.56;;;8.01;72.73
49827;BME280;35715;51.570;6.036;2023-03-04T08:12:07;102454.47;;;8.21;71.53
49827;BME280;35715;51.570;6.036;2023-03-04T08:14:32;102461.25;;;8.45;71.28
49827;BME280;35715;51.570;6.036;2023-03-04T08:17:03;102453.16;;;8.33;70.44
49827;BME280;35715;51.570;6.036;2023-03-04T08:19:28;102447.56;;;9.76;68.63
49827;BME280;35715;51.570;6.036;2023-03-04T08:21:53;102453.56;;;9.94;65.92
49827;BME280;35715;51.570;6.036;2023-03-04T08:24:19;102444.81;;;10.65;62.77
49827;BME280;35715;51.570;6.036;2023-03-04T08:26:49;102445.50;;;11.97;60.59
49827;BME280;35715;51.570;6.036;2023-03-04T08:29:16;102452.00;;;13.04;57.69
49827;BME280;35715;51.570;6.036;2023-03-04T08:31:41;102443.13;;;13.32;55.98
49827;BME280;35715;51.570;6.036;2023-03-04T08:34:08;102441.06;;;12.25;56.28
49827;BME280;35715;51.570;6.036;2023-03-04T08:36:34;102453.53;;;11.52;57.80
49827;BME280;35715;51.570;6.036;2023-03-04T08:39:00;102451.66;;;12.18;58.51
49827;BME280;35715;51.570;6.036;2023-03-04T08:41:26;102460.31;;;12.69;54.97
49827;BME280;35715;51.570;6.036;2023-03-04T08:43:52;102463.72;;;12.28;55.45
49827;BME280;35715;51.570;6.036;2023-03-04T08:46:21;102457.00;;;11.71;58.93
49827;BME280;35715;51.570;6.036;2023-03-04T08:48:46;102462.63;;;11.57;58.93
49827;BME280;35715;51.570;6.036;2023-03-04T08:51:12;102452.75;;;11.24;59.12
49827;BME280;35715;51.570;6.036;2023-03-04T08:53:38;102464.69;;;11.13;60.17
49827;BME280;35715;51.570;6.036;2023-03-04T08:58:34;102450.94;;;11.71;59.65
49827;BME280;35715;51.570;6.036;2023-03-04T09:01:00;102448.63;;;11.93;59.40
49827;BME280;35715;51.570;6.036;2023-03-04T09:03:25;102449.53;;;11.75;58.66
49827;BME280;35715;51.570;6.036;2023-03-04T09:08:20;102448.63;;;11.93;58.72
49827;BME280;35715;51.570;6.036;2023-03-04T09:10:45;102447.53;;;11.91;58.95
49827;BME280;35715;51.570;6.036;2023-03-04T09:13:12;102444.13;;;12.11;57.53
49827;BME280;35715;51.570;6.036;2023-03-04T09:15:47;102444.34;;;11.75;57.47
49827;BME280;35715;51.570;6.036;2023-03-04T09:18:13;102438.03;;;11.52;58.98
49827;BME280;35715;51.570;6.036;2023-03-04T09:20:38;102447.63;;;11.53;59.22
49827;BME280;35715;51.570;6.036;2023-03-04T09:23:03;102441.81;;;11.56;59.07
49827;BME280;35715;51.570;6.036;2023-03-04T09:25:29;102443.78;;;11.87;58.97
49827;BME280;35715;51.570;6.036;2023-03-04T09:27:54;102446.63;;;11.90;58.45
49827;BME280;35715;51.570;6.036;2023-03-04T09:30:19;102447.88;;;11.56;60.06
49827;BME280;35715;51.570;6.036;2023-03-04T09:32:45;102436.03;;;11.20;60.28
49827;BME280;35715;51.570;6.036;2023-03-04T09:35:10;102439.44;;;11.19;61.11
49827;BME280;35715;51.570;6.036;2023-03-04T09:37:36;102433.59;;;11.60;60.19
49827;BME280;35715;51.570;6.036;2023-03-04T09:40:02;102427.00;;;11.34;60.14
49827;BME280;35715;51.570;6.036;2023-03-04T09:42:37;102430.00;;;11.68;59.81
49827;BME280;35715;51.570;6.036;2023-03-04T09:45:06;102428.81;;;11.94;59.20
49827;BME280;35715;51.570;6.036;2023-03-04T09:47:40;102428.28;;;11.68;58.21
49827;BME280;35715;51.570;6.036;2023-03-04T09:50:08;102430.53;;;11.45;58.80
49827;BME280;35715;51.570;6.036;2023-03-04T10:00:11;102422.03;;;10.89;61.39
49827;BME280;35715;51.570;6.036;2023-03-04T10:05:03;102419.72;;;11.88;59.37
49827;BME280;35715;51.570;6.036;2023-03-04T10:07:36;102420.34;;;13.08;56.93
49827;BME280;35715;51.570;6.036;2023-03-04T10:10:21;102418.75;;;13.41;55.98
49827;BME280;35715;51.570;6.036;2023-03-04T10:12:48;102418.97;;;13.01;56.30
49827;BME280;35715;51.570;6.036;2023-03-04T10:15:26;102410.03;;;12.56;56.32
49827;BME280;35715;51.570;6.036;2023-03-04T10:23:24;102415.16;;;11.46;58.32
49827;BME280;35715;51.570;6.036;2023-03-04T10:25:51;102412.19;;;11.23;58.95
49827;BME280;35715;51.570;6.036;2023-03-04T10:28:30;102413.78;;;10.93;59.47
49827;BME280;35715;51.570;6.036;2023-03-04T10:31:01;102415.84;;;10.59;60.70
49827;BME280;35715;51.570;6.036;2023-03-04T10:33:27;102406.31;;;10.49;61.81
49827;BME280;35715;51.570;6.036;2023-03-04T10:38:36;102415.19;;;10.42;63.42
49827;BME280;35715;51.570;6.036;2023-03-04T10:43:37;102409.03;;;10.51;63.55
49827;BME280;35715;51.570;6.036;2023-03-04T10:46:03;102415.56;;;10.75;63.51
49827;BME280;35715;51.570;6.036;2023-03-04T10:48:29;102414.19;;;10.78;62.92
49827;BME280;35715;51.570;6.036;2023-03-04T10:51:09;102412.38;;;10.58;62.77
49827;BME280;35715;51.570;6.036;2023-03-04T10:53:36;102413.63;;;10.44;63.92
49827;BME280;35715;51.570;6.036;2023-03-04T10:56:08;102413.75;;;10.18;66.40
49827;BME280;35715;51.570;6.036;2023-03-04T10:58:49;102409.34;;;10.17;66.63
49827;BME280;35715;51.570;6.036;2023-03-04T11:01:15;102407.00;;;10.29;66.23
49827;BME280;35715;51.570;6.036;2023-03-04T11:03:45;102406.41;;;10.40;65.71
49827;BME280;35715;51.570;6.036;2023-03-04T11:06:20;102405.00;;;10.44;65.70
49827;BME280;35715;51.570;6.036;2023-03-04T11:08:53;102399.66;;;11.27;64.91
49827;BME280;35715;51.570;6.036;2023-03-04T11:11:20;102399.25;;;11.52;61.71
49827;BME280;35715;51.570;6.036;2023-03-04T11:13:55;102389.66;;;11.70;60.99
49827;BME280;35715;51.570;6.036;2023-03-04T11:16:30;102380.63;;;12.15;60.75
49827;BME280;35715;51.570;6.036;2023-03-04T11:19:01;102379.34;;;12.20;61.03
49827;BME280;35715;51.570;6.036;2023-03-04T11:21:29;102381.09;;;12.00;60.72
49827;BME280;35715;51.570;6.036;2023-03-04T11:24:15;102378.91;;;12.05;60.52
49827;BME280;35715;51.570;6.036;2023-03-04T11:26:49;102379.88;;;12.47;60.30
49827;BME280;35715;51.570;6.036;2023-03-04T11:39:40;102352.25;;;11.96;59.90
49827;BME280;35715;51.570;6.036;2023-03-04T11:44:39;102349.59;;;11.75;60.86
49827;BME280;35715;51.570;6.036;2023-03-04T11:47:21;102348.53;;;11.63;60.52
49827;BME280;35715;51.570;6.036;2023-03-04T11:49:58;102344.69;;;11.39;61.04
49827;BME280;35715;51.570;6.036;2023-03-04T12:00:18;102339.97;;;10.95;62.06
49827;BME280;35715;51.570;6.036;2023-03-04T12:03:11;102343.63;;;10.88;62.23
49827;BME280;35715;51.570;6.036;2023-03-04T12:13:39;102331.47;;;10.49;64.43
49827;BME280;35715;51.570;6.036;2023-03-04T12:16:24;102324.03;;;10.52;64.52
49827;BME280;35715;51.570;6.036;2023-03-04T12:19:02;102317.91;;;10.60;64.28
49827;BME280;35715;51.570;6.036;2023-03-04T12:31:46;102299.78;;;10.69;64.25
49827;BME280;35715;51.570;6.036;2023-03-04T12:42:27;102288.53;;;10.69;64.81
49827;BME280;35715;51.570;6.036;2023-03-04T12:45:02;102283.19;;;10.57;64.83
49827;BME280;35715;51.570;6.036;2023-03-04T12:52:59;102284.13;;;10.48;66.02
49827;BME280;35715;51.570;6.036;2023-03-04T12:55:34;102279.25;;;10.52;65.79
49827;BME280;35715;51.570;6.036;2023-03-04T12:58:00;102273.28;;;10.61;65.86
49827;BME280;35715;51.570;6.036;2023-03-04T13:03:46;102266.03;;;10.87;65.35
49827;BME280;35715;51.570;6.036;2023-03-04T13:06:07;102266.09;;;10.97;64.88
49827;BME280;35715;51.570;6.036;2023-03-04T13:13:44;102250.97;;;11.31;64.62
49827;BME280;35715;51.570;6.036;2023-03-04T13:16:43;102251.53;;;11.37;64.16
49827;BME280;35715;51.570;6.036;2023-03-04T13:21:53;102237.97;;;11.00;64.37
49827;BME280;35715;51.570;6.036;2023-03-04T13:27:50;102241.72;;;10.74;65.05
49827;BME280;35715;51.570;6.036;2023-03-04T13:29:50;102241.16;;;10.68;65.05
49827;BME280;35715;51.570;6.036;2023-03-04T13:32:24;102236.88;;;10.58;65.67
49827;BME280;35715;51.570;6.036;2023-03-04T13:34:58;102228.84;;;10.55;65.69
49827;BME280;35715;51.570;6.036;2023-03-04T13:37:26;102237.81;;;10.69;65.82
49827;BME280;35715;51.570;6.036;2023-03-04T13:42:39;102229.88;;;10.87;65.45
49827;BME280;35715;51.570;6.036;2023-03-04T13:45:27;102233.81;;;10.92;65.76
49827;BME280;35715;51.570;6.036;2023-03-04T13:47:50;102223.59;;;10.93;65.79
49827;BME280;35715;51.570;6.036;2023-03-04T13:50:21;102218.81;;;10.88;66.08
49827;BME280;35715;51.570;6.036;2023-03-04T13:52:47;102214.81;;;10.91;66.27
49827;BME280;35715;51.570;6.036;2023-03-04T13:55:32;102221.16;;;10.95;66.41
49827;BME280;35715;51.570;6.036;2023-03-04T13:57:58;102207.84;;;10.90;66.32
49827;BME280;35715;51.570;6.036;2023-03-04T14:00:23;102209.22;;;10.87;66.61
49827;BME280;35715;51.570;6.036;2023-03-04T14:02:49;102213.00;;;10.90;66.72
49827;BME280;35715;51.570;6.036;2023-03-04T14:05:14;102218.94;;;10.89;66.48
49827;BME280;35715;51.570;6.036;2023-03-04T14:07:41;102209.63;;;10.91;66.31
49827;BME280;35715;51.570;6.036;2023-03-04T14:12:48;102208.97;;;10.83;66.07
49827;BME280;35715;51.570;6.036;2023-03-04T14:17:43;102212.03;;;10.79;66.27
49827;BME280;35715;51.570;6.036;2023-03-04T14:20:28;102207.38;;;10.75;66.45
49827;BME280;35715;51.570;6.036;2023-03-04T14:22:55;102207.13;;;10.72;66.81
49827;BME280;35715;51.570;6.036;2023-03-04T14:25:34;102205.50;;;10.64;66.87
49827;BME280;35715;51.570;6.036;2023-03-04T14:28:09;102203.03;;;10.55;67.35
49827;BME280;35715;51.570;6.036;2023-03-04T14:30:35;102209.31;;;10.48;67.75
49827;BME280;35715;51.570;6.036;2023-03-04T14:33:00;102199.75;;;10.47;67.92
49827;BME280;35715;51.570;6.036;2023-03-04T14:35:26;102200.47;;;10.36;67.55
49827;BME280;35715;51.570;6.036;2023-03-04T14:40:19;102196.63;;;10.41;65.72
49827;BME280;35715;51.570;6.036;2023-03-04T14:42:45;102190.56;;;10.41;64.75
49827;BME280;35715;51.570;6.036;2023-03-04T14:45:11;102187.31;;;10.24;64.56
49827;BME280;35715;51.570;6.036;2023-03-04T14:47:40;102188.47;;;10.37;64.27
49827;BME280;35715;51.570;6.036;2023-03-04T14:50:13;102181.00;;;10.40;64.39
49827;BME280;35715;51.570;6.036;2023-03-04T14:52:40;102182.19;;;10.43;64.01
49827;BME280;35715;51.570;6.036;2023-03-04T14:57:35;102181.47;;;10.55;63.64
49827;BME280;35715;51.570;6.036;2023-03-04T15:02:39;102179.75;;;10.45;63.47